Time;durP1;ratioP1;P1;durP2;ratioP2;P2;SDS_P1;SDS_P2;PMS_P1;PMS_P2;Temp;Humidity;BMP_temperature;BMP_pressure;BME280_temperature;BME280_humidity;BME280_pressure;Samples;Min_cycle;Max_cycle;Signal;HPM_P1;HPM_P2
2022/12/17 13:07:21;;;;;;;62.10;20.87;;;;;;;;;;10477307;28;20213;-76
2022/12/17 13:12:25;;;;;;;63.40;20.43;;;;;;;;;;10462633;28;20301;-79
2022/12/17 13:17:37;;;;;;;66.43;19.27;;;;;;;;;;10469505;28;20251;-76
2022/12/17 13:22:48;;;;;;;65.63;18.60;;;;;;;;;;10464546;28;20297;-79
2022/12/17 13:27:49;;;;;;;62.40;17.93;;;;;;;;;;10447325;28;20225;-79
2022/12/17 13:32:53;;;;;;;49.63;18.40;;;;;;;;;;10462701;28;20276;-81
2022/12/17 13:38:13;;;;;;;38.97;15.83;;;;;;;;;;10465689;28;20301;-77
2022/12/17 13:43:19;;;;;;;59.80;20.37;;;;;;;;;;10460773;28;20214;-76
2022/12/17 13:48:21;;;;;;;52.97;17.00;;;;;;;;;;10465531;28;20217;-75
2022/12/17 13:53:23;;;;;;;74.47;21.83;;;;;;;;;;10463743;28;20223;-78
2022/12/17 13:58:30;;;;;;;56.60;19.23;;;;;;;;;;10468627;28;20219;-74
2022/12/17 14:03:31;;;;;;;55.53;19.80;;;;;;;;;;10474992;28;20207;-73
2022/12/17 14:08:33;;;;;;;82.03;19.53;;;;;;;;;;10463047;28;20214;-78
2022/12/17 14:13:36;;;;;;;52.07;18.50;;;;;;;;;;10475302;28;20724;-77
2022/12/17 14:18:39;;;;;;;37.00;13.20;;;;;;;;;;10479000;28;20319;-80
2022/12/17 14:23:41;;;;;;;51.30;17.87;;;;;;;;;;10462832;28;20218;-78
2022/12/17 14:28:46;;;;;;;46.27;16.67;;;;;;;;;;10470593;28;20252;-81
2022/12/17 14:33:48;;;;;;;45.40;14.73;;;;;;;;;;10465830;28;20221;-79
2022/12/17 14:38:56;;;;;;;60.97;17.40;;;;;;;;;;10482841;28;20206;-79
2022/12/17 14:43:58;;;;;;;59.97;18.17;;;;;;;;;;10471097;28;20214;-83
2022/12/17 14:49:04;;;;;;;35.13;12.33;;;;;;;;;;10471399;28;20206;-79
2022/12/17 14:54:19;;;;;;;35.93;14.27;;;;;;;;;;10463409;28;20218;-82
2022/12/17 14:59:29;;;;;;;64.87;14.73;;;;;;;;;;10478712;28;20214;-79
2022/12/17 15:04:32;;;;;;;45.47;14.17;;;;;;;;;;10473826;28;20232;-79
2022/12/17 15:09:37;;;;;;;59.00;16.87;;;;;;;;;;10452214;28;20224;-80
2022/12/17 15:14:38;;;;;;;59.60;16.57;;;;;;;;;;10469750;28;20210;-82
2022/12/17 15:19:39;;;;;;;53.37;17.50;;;;;;;;;;10463469;28;20217;-78
2022/12/17 15:24:40;;;;;;;46.83;15.07;;;;;;;;;;10467899;28;20242;-83
2022/12/17 15:29:42;;;;;;;43.77;14.80;;;;;;;;;;10463207;28;20249;-82
2022/12/17 15:34:43;;;;;;;54.50;16.03;;;;;;;;;;10471088;28;20211;-77
2022/12/17 15:39:44;;;;;;;44.63;14.83;;;;;;;;;;10464110;28;20215;-77
2022/12/17 15:44:46;;;;;;;40.17;14.37;;;;;;;;;;10462998;28;20267;-77
2022/12/17 15:49:47;;;;;;;52.07;15.63;;;;;;;;;;10461573;28;20237;-79
2022/12/17 15:54:48;;;;;;;39.53;13.43;;;;;;;;;;10458483;28;20210;-82
2022/12/17 15:59:50;;;;;;;44.33;13.23;;;;;;;;;;10471407;28;20213;-79
2022/12/17 16:04:51;;;;;;;32.70;12.30;;;;;;;;;;10463748;28;20210;-80
2022/12/17 16:09:52;;;;;;;34.70;13.23;;;;;;;;;;10457343;28;20210;-78
2022/12/17 16:14:53;;;;;;;35.50;12.47;;;;;;;;;;10466386;28;20210;-77
2022/12/17 16:19:54;;;;;;;28.77;12.57;;;;;;;;;;10452133;28;20206;-76
2022/12/17 16:24:56;;;;;;;33.93;11.67;;;;;;;;;;10464581;28;20281;-76
2022/12/17 16:29:57;;;;;;;26.73;10.60;;;;;;;;;;10476218;28;20223;-76
2022/12/17 16:34:58;;;;;;;23.63;10.60;;;;;;;;;;10465968;28;20214;-74
2022/12/17 16:39:59;;;;;;;27.53;10.83;;;;;;;;;;10472372;28;20234;-75
2022/12/17 16:45:00;;;;;;;30.97;13.60;;;;;;;;;;10462844;28;20206;-78
2022/12/17 16:50:01;;;;;;;33.10;12.27;;;;;;;;;;10466491;28;20309;-75
2022/12/17 16:55:02;;;;;;;36.37;12.07;;;;;;;;;;10468668;28;20593;-74
2022/12/17 17:00:04;;;;;;;34.37;11.20;;;;;;;;;;10476467;28;20531;-75
2022/12/17 17:05:05;;;;;;;54.63;11.50;;;;;;;;;;10486593;28;20183;-74
2022/12/17 17:10:06;;;;;;;33.20;12.50;;;;;;;;;;10477936;28;20205;-74
2022/12/17 17:15:07;;;;;;;28.07;11.27;;;;;;;;;;10470959;28;20285;-74
2022/12/17 17:20:09;;;;;;;19.80;8.17;;;;;;;;;;10474914;28;20657;-75
2022/12/17 17:25:10;;;;;;;66.33;14.03;;;;;;;;;;10459808;28;20234;-77
2022/12/17 17:30:11;;;;;;;55.30;14.97;;;;;;;;;;10430850;28;20198;-75
2022/12/17 17:35:12;;;;;;;27.97;11.70;;;;;;;;;;10440490;28;20204;-74
2022/12/17 17:40:13;;;;;;;40.07;11.77;;;;;;;;;;10419820;28;20175;-75
2022/12/17 17:45:15;;;;;;;46.90;11.37;;;;;;;;;;10432466;28;20207;-76
2022/12/17 17:50:16;;;;;;;42.47;12.20;;;;;;;;;;10414267;28;20781;-79
2022/12/17 17:55:17;;;;;;;28.60;10.47;;;;;;;;;;10429789;28;20179;-75
2022/12/17 18:00:19;;;;;;;26.50;11.20;;;;;;;;;;10435524;28;20254;-75
2022/12/17 18:05:20;;;;;;;29.83;10.23;;;;;;;;;;10440809;28;20175;-75
2022/12/17 18:10:21;;;;;;;34.93;13.37;;;;;;;;;;10430746;28;20199;-74
2022/12/17 18:15:22;;;;;;;19.37;7.97;;;;;;;;;;10430755;28;20748;-75
2022/12/17 18:20:23;;;;;;;36.00;12.83;;;;;;;;;;10434493;28;20212;-77
2022/12/17 18:25:24;;;;;;;23.87;11.57;;;;;;;;;;10447905;28;20234;-76
2022/12/17 18:30:25;;;;;;;40.47;14.43;;;;;;;;;;10470631;28;20222;-73
2022/12/17 18:35:26;;;;;;;37.63;12.53;;;;;;;;;;10471306;28;20222;-76
2022/12/17 18:40:27;;;;;;;44.47;15.43;;;;;;;;;;10475513;28;20218;-77
2022/12/17 18:45:28;;;;;;;44.63;13.00;;;;;;;;;;10474909;28;20254;-79
2022/12/17 18:50:29;;;;;;;31.07;13.90;;;;;;;;;;10466702;28;20753;-77
2022/12/17 18:55:30;;;;;;;39.20;15.33;;;;;;;;;;10471173;28;20221;-74
2022/12/17 19:00:32;;;;;;;47.70;14.90;;;;;;;;;;10462209;28;20225;-73
2022/12/17 19:05:33;;;;;;;32.13;10.83;;;;;;;;;;10462702;28;20214;-73
2022/12/17 19:10:36;;;;;;;15.83;8.90;;;;;;;;;;10472224;28;20985;-75
2022/12/17 19:15:37;;;;;;;40.90;13.50;;;;;;;;;;10464549;28;20217;-72
2022/12/17 19:20:38;;;;;;;58.63;17.80;;;;;;;;;;10467853;28;20333;-71
2022/12/17 19:25:39;;;;;;;26.27;9.93;;;;;;;;;;10459443;28;20230;-72
2022/12/17 19:30:40;;;;;;;27.90;11.83;;;;;;;;;;10482803;28;20226;-71
2022/12/17 19:35:41;;;;;;;28.93;8.10;;;;;;;;;;10448972;28;20614;-71
2022/12/17 19:40:43;;;;;;;25.40;9.93;;;;;;;;;;10461320;28;20214;-71
2022/12/17 19:45:46;;;;;;;32.57;12.83;;;;;;;;;;10458495;28;20209;-73
2022/12/17 19:50:55;;;;;;;10.73;7.53;;;;;;;;;;10465742;28;20238;-71
2022/12/17 19:55:57;;;;;;;34.67;13.23;;;;;;;;;;10457074;28;20217;-75
2022/12/17 20:01:04;;;;;;;53.37;15.80;;;;;;;;;;10459587;28;20658;-73
2022/12/17 20:06:05;;;;;;;39.70;14.43;;;;;;;;;;10474422;28;20222;-71
2022/12/17 20:11:31;;;;;;;39.10;11.63;;;;;;;;;;10457855;28;20214;-74
2022/12/17 20:16:29;;;;;;;38.20;13.43;;;;;;;;;;10457617;28;20618;-72
2022/12/17 20:21:30;;;;;;;34.60;12.50;;;;;;;;;;10458843;28;20210;-75
2022/12/17 20:26:32;;;;;;;36.43;13.13;;;;;;;;;;10462955;28;20238;-74
2022/12/17 20:31:33;;;;;;;43.77;13.00;;;;;;;;;;10465261;28;20228;-71
2022/12/17 20:36:35;;;;;;;27.97;9.60;;;;;;;;;;10464007;28;20685;-74
2022/12/17 20:41:36;;;;;;;14.03;7.23;;;;;;;;;;10459273;28;20206;-79
2022/12/17 20:46:39;;;;;;;41.33;11.80;;;;;;;;;;10464135;28;20209;-79
2022/12/17 20:51:41;;;;;;;38.17;12.70;;;;;;;;;;10483739;28;20317;-73
2022/12/17 20:56:42;;;;;;;40.33;13.00;;;;;;;;;;10458671;28;20305;-75
2022/12/17 21:01:43;;;;;;;23.03;9.07;;;;;;;;;;10420433;22;20242;-80
2022/12/17 21:06:45;;;;;;;21.53;9.07;;;;;;;;;;10310892;28;20216;-80
2022/12/17 21:11:46;;;;;;;27.97;10.67;;;;;;;;;;10341264;28;20665;-80
2022/12/17 21:16:47;;;;;;;26.20;11.43;;;;;;;;;;10345461;28;20227;-80
2022/12/17 21:21:48;;;;;;;30.10;10.80;;;;;;;;;;10333731;28;21174;-80
2022/12/17 21:26:49;;;;;;;31.37;8.63;;;;;;;;;;10327321;28;20248;-80
2022/12/17 21:31:51;;;;;;;25.60;10.47;;;;;;;;;;10346380;28;20228;-81
2022/12/17 21:36:52;;;;;;;25.07;11.57;;;;;;;;;;10346281;28;20220;-79
2022/12/17 21:47:13;;;;;;;38.80;11.67;;;;;;;;;;10348491;28;20284;-81
2022/12/17 21:52:14;;;;;;;35.97;9.13;;;;;;;;;;10351242;28;20304;-81
2022/12/17 21:57:15;;;;;;;24.77;9.00;;;;;;;;;;10362022;28;20231;-80
2022/12/17 22:02:16;;;;;;;24.00;10.00;;;;;;;;;;10333520;28;20303;-81
2022/12/17 22:07:17;;;;;;;12.07;7.17;;;;;;;;;;10366410;28;20247;-81
2022/12/17 22:17:38;;;;;;;12.63;6.17;;;;;;;;;;10368812;28;20208;-80
2022/12/17 22:22:39;;;;;;;26.63;9.23;;;;;;;;;;10353186;28;20215;-80
2022/12/17 22:27:41;;;;;;;24.30;9.27;;;;;;;;;;10335769;28;20219;-80
2022/12/17 22:33:01;;;;;;;31.10;10.30;;;;;;;;;;10363350;28;20233;-81
2022/12/17 22:38:03;;;;;;;26.93;11.13;;;;;;;;;;10320038;28;20221;-81
2022/12/17 22:48:28;;;;;;;28.73;10.83;;;;;;;;;;10321103;28;20244;-80
2022/12/17 22:53:31;;;;;;;17.17;8.37;;;;;;;;;;10299422;28;20224;-80
2022/12/17 22:58:32;;;;;;;24.47;9.53;;;;;;;;;;10317165;28;20217;-81
2022/12/17 23:03:33;;;;;;;33.43;10.30;;;;;;;;;;10306883;28;20233;-80
2022/12/17 23:08:34;;;;;;;25.30;9.40;;;;;;;;;;10320710;28;20282;-81
2022/12/17 23:13:35;;;;;;;18.80;8.60;;;;;;;;;;10304706;28;20709;-81
2022/12/17 23:18:37;;;;;;;29.57;10.57;;;;;;;;;;10340031;28;20220;-80
2022/12/17 23:23:38;;;;;;;27.33;9.00;;;;;;;;;;10352217;28;20214;-81
2022/12/17 23:28:39;;;;;;;14.93;6.37;;;;;;;;;;10327285;28;20700;-80
2022/12/17 23:33:41;;;;;;;25.07;8.37;;;;;;;;;;10334205;28;20749;-80
2022/12/17 23:38:42;;;;;;;14.63;6.50;;;;;;;;;;10341526;28;20247;-80
2022/12/17 23:43:44;;;;;;;18.20;7.33;;;;;;;;;;10338736;28;20274;-80
2022/12/17 23:48:46;;;;;;;15.33;7.53;;;;;;;;;;10319173;28;20213;-81
2022/12/17 23:53:48;;;;;;;15.47;8.50;;;;;;;;;;10314693;28;20460;-80
2022/12/17 23:58:52;;;;;;;25.10;8.40;;;;;;;;;;10309503;28;20556;-80
